Time;durP1;ratioP1;P1;durP2;ratioP2;P2;SDS_P1;SDS_P2;PMS_P1;PMS_P2;Temp;Humidity;BMP_temperature;BMP_pressure;BME280_temperature;BME280_humidity;BME280_pressure;Samples;Min_cycle;Max_cycle;Signal;HPM_P1;HPM_P2
2022/08/18 00:00:43;;;;;;;13.38;10.48;;;;;;;22.34;74.56;99506.73;1685740;82;23031;-74
2022/08/18 00:03:10;;;;;;;14.28;10.38;;;;;;;22.37;74.51;99517.05;1682051;84;21536;-73
2022/08/18 00:05:37;;;;;;;13.45;9.88;;;;;;;22.37;74.43;99517.56;1682591;84;21510;-73
2022/08/18 00:08:04;;;;;;;14.95;10.45;;;;;;;22.36;74.39;99524.82;1657423;85;21099;-74
2022/08/18 00:10:32;;;;;;;12.98;10.43;;;;;;;22.38;74.32;99525.41;1682853;83;21052;-73
2022/08/18 00:12:59;;;;;;;13.80;10.43;;;;;;;22.38;74.34;99524.07;1686403;84;21926;-72
2022/08/18 00:15:26;;;;;;;16.70;10.93;;;;;;;22.37;74.33;99521.08;1679622;84;21120;-74
2022/08/18 00:17:52;;;;;;;14.00;10.55;;;;;;;22.37;74.35;99521.60;1680609;84;21048;-73
2022/08/18 00:20:22;;;;;;;18.85;10.48;;;;;;;22.35;74.39;99519.14;1656625;85;21033;-75
2022/08/18 00:22:48;;;;;;;12.25;10.43;;;;;;;22.34;74.43;99519.36;1679977;84;21602;-73
2022/08/18 00:25:16;;;;;;;13.35;10.40;;;;;;;22.32;74.47;99514.73;1680300;84;22423;-74
2022/08/18 00:27:42;;;;;;;15.55;11.00;;;;;;;22.28;74.53;99519.18;1693782;84;20965;-73
2022/08/18 00:30:13;;;;;;;12.78;10.53;;;;;;;22.26;74.61;99521.27;1690911;84;21102;-73
2022/08/18 00:32:43;;;;;;;13.05;10.55;;;;;;;22.23;74.76;99524.41;1690089;84;21017;-74
2022/08/18 00:35:13;;;;;;;17.85;11.40;;;;;;;22.18;74.93;99513.98;1682026;84;20966;-73
2022/08/18 00:37:40;;;;;;;14.10;10.93;;;;;;;22.12;75.18;99513.53;1683909;84;21897;-74
2022/08/18 00:40:10;;;;;;;15.80;11.70;;;;;;;22.06;75.36;99516.52;1665189;84;21009;-75
2022/08/18 00:42:47;;;;;;;15.30;11.53;;;;;;;22.03;75.55;99512.94;1680325;84;21041;-74
2022/08/18 00:45:19;;;;;;;13.00;11.50;;;;;;;22.00;75.67;99516.03;1677592;84;21044;-73
2022/08/18 00:47:45;;;;;;;13.15;11.10;;;;;;;22.00;75.76;99516.03;1671621;85;21087;-73
2022/08/18 00:50:23;;;;;;;12.75;11.10;;;;;;;21.97;75.87;99506.55;1679718;84;21966;-73
2022/08/18 00:53:01;;;;;;;18.30;11.25;;;;;;;21.96;76.05;99510.80;1676120;84;20985;-74
2022/08/18 00:55:28;;;;;;;12.82;11.18;;;;;;;21.90;76.23;99508.97;1691724;84;20984;-74
2022/08/18 00:58:00;;;;;;;13.62;11.60;;;;;;;21.86;76.38;99511.80;1686351;84;21434;-74
2022/08/18 01:00:27;;;;;;;16.00;12.15;;;;;;;21.85;76.41;99506.94;1682265;84;21016;-73
2022/08/18 01:02:57;;;;;;;15.70;11.80;;;;;;;21.84;76.48;99507.16;1702683;82;21822;-74
2022/08/18 01:05:39;;;;;;;16.40;11.63;;;;;;;21.82;76.47;99503.34;1679743;84;21481;-74
2022/08/18 01:08:10;;;;;;;14.53;11.35;;;;;;;21.80;76.53;99510.78;1684164;84;20974;-73
2022/08/18 01:10:39;;;;;;;12.93;11.63;;;;;;;21.79;76.54;99517.72;1684565;84;20991;-74
2022/08/18 01:13:06;;;;;;;13.13;11.05;;;;;;;21.78;76.50;99511.52;1685257;84;21018;-73
2022/08/18 01:15:32;;;;;;;15.85;11.88;;;;;;;21.76;76.43;99513.61;1685863;84;21836;-74
2022/08/18 01:24:07;;;;;;;13.95;11.70;;;;;;;21.66;76.56;99514.59;1661928;84;21001;-72
2022/08/18 01:26:37;;;;;;;17.23;11.85;;;;;;;21.64;76.57;99513.47;1679285;84;21034;-72
2022/08/18 01:29:10;;;;;;;18.73;12.80;;;;;;;21.63;76.59;99511.82;1691669;82;21926;-75
2022/08/18 01:31:41;;;;;;;13.70;11.83;;;;;;;21.59;76.67;99505.21;1690904;82;21069;-73
2022/08/18 01:34:09;;;;;;;16.85;11.30;;;;;;;21.58;76.78;99506.77;1680992;84;21010;-72
2022/08/18 01:36:37;;;;;;;14.68;12.13;;;;;;;21.57;76.81;99507.81;1685708;84;21061;-73
2022/08/18 01:39:06;;;;;;;15.50;11.38;;;;;;;21.54;76.88;99506.39;1675575;84;21074;-73
2022/08/18 01:41:32;;;;;;;15.05;11.90;;;;;;;21.54;76.90;99510.94;1690424;84;21815;-73
2022/08/18 01:44:00;;;;;;;14.00;11.68;;;;;;;21.52;76.96;99506.27;1679768;84;20922;-73
2022/08/18 01:46:28;;;;;;;14.40;11.85;;;;;;;21.49;77.01;99512.91;1678747;84;21468;-73
2022/08/18 01:48:57;;;;;;;14.25;12.05;;;;;;;21.46;77.10;99512.52;1678154;84;21472;-72
2022/08/18 01:51:23;;;;;;;17.50;11.93;;;;;;;21.42;77.26;99511.61;1680266;84;21570;-73
2022/08/18 01:53:50;;;;;;;13.35;11.95;;;;;;;21.40;77.38;99520.91;1680107;84;22616;-73
2022/08/18 01:56:16;;;;;;;13.98;11.93;;;;;;;21.38;77.55;99525.66;1690353;84;21069;-73
2022/08/18 01:58:44;;;;;;;13.43;11.93;;;;;;;21.33;77.67;99521.47;1679451;84;21030;-75
2022/08/18 02:01:12;;;;;;;16.00;12.68;;;;;;;21.31;77.84;99513.59;1690217;84;21413;-73
2022/08/18 02:03:43;;;;;;;16.55;11.97;;;;;;;21.29;77.96;99510.82;1682075;84;21157;-73
2022/08/18 02:06:12;;;;;;;13.62;12.10;;;;;;;21.27;78.15;99523.64;1656366;85;21970;-74
2022/08/18 02:08:39;;;;;;;14.63;12.30;;;;;;;21.24;78.34;99521.36;1677451;84;21794;-73
2022/08/18 02:11:06;;;;;;;16.62;12.55;;;;;;;21.21;78.50;99519.08;1678359;84;21100;-73
2022/08/18 02:13:33;;;;;;;13.83;12.03;;;;;;;21.22;78.53;99528.26;1673554;84;21096;-73
2022/08/18 02:16:00;;;;;;;17.27;12.82;;;;;;;21.22;78.60;99523.41;1676973;85;20987;-74
2022/08/18 02:18:31;;;;;;;15.75;12.00;;;;;;;21.19;78.67;99523.32;1679300;84;21918;-74
2022/08/18 02:21:00;;;;;;;15.43;13.05;;;;;;;21.18;78.75;99523.02;1677048;85;21069;-73
2022/08/18 02:23:27;;;;;;;16.97;12.40;;;;;;;21.15;78.81;99519.42;1683077;84;21512;-73
2022/08/18 02:25:53;;;;;;;18.48;13.00;;;;;;;21.15;78.85;99524.80;1681763;84;21088;-74
2022/08/18 02:28:20;;;;;;;18.15;12.80;;;;;;;21.17;78.86;99520.55;1686851;84;21097;-73
2022/08/18 02:30:46;;;;;;;14.63;12.37;;;;;;;21.18;78.78;99526.22;1679743;84;22523;-73
2022/08/18 02:33:12;;;;;;;15.70;13.15;;;;;;;21.15;78.79;99528.30;1683436;84;21544;-74
2022/08/18 02:35:39;;;;;;;16.12;12.33;;;;;;;21.13;78.76;99522.33;1688193;84;21472;-73
2022/08/18 02:38:06;;;;;;;15.93;12.37;;;;;;;21.11;78.86;99523.55;1685990;84;21008;-73
2022/08/18 02:40:34;;;;;;;14.47;12.70;;;;;;;21.11;78.90;99520.86;1688362;84;21101;-74
2022/08/18 02:43:08;;;;;;;15.75;12.43;;;;;;;21.09;78.89;99519.73;1691070;83;21794;-74
2022/08/18 02:45:38;;;;;;;16.25;11.93;;;;;;;21.08;78.88;99523.45;1682799;84;21057;-74
2022/08/18 02:48:05;;;;;;;13.88;12.20;;;;;;;21.05;78.89;99527.09;1680637;84;21104;-74
2022/08/18 02:50:32;;;;;;;14.03;12.07;;;;;;;21.05;78.95;99531.13;1671012;84;21531;-73
2022/08/18 02:53:01;;;;;;;18.95;12.40;;;;;;;21.03;78.97;99529.14;1680390;84;21615;-73
2022/08/18 02:55:28;;;;;;;14.45;11.73;;;;;;;21.03;79.02;99535.33;1684937;84;21849;-73
2022/08/18 02:57:54;;;;;;;16.62;12.20;;;;;;;21.03;79.11;99534.51;1679776;84;21018;-73
2022/08/18 03:00:21;;;;;;;14.10;12.68;;;;;;;21.02;79.09;99527.49;1680795;84;20978;-72
2022/08/18 03:02:50;;;;;;;17.27;11.88;;;;;;;21.02;79.15;99531.00;1679631;84;20994;-73
2022/08/18 03:05:17;;;;;;;13.75;11.95;;;;;;;21.04;79.12;99542.90;1680031;84;21467;-73
2022/08/18 03:07:44;;;;;;;16.75;12.60;;;;;;;21.05;79.12;99543.20;1680252;84;21902;-74
2022/08/18 03:10:13;;;;;;;15.30;12.70;;;;;;;21.03;79.13;99538.02;1679770;85;20958;-74
2022/08/18 03:12:42;;;;;;;15.65;12.47;;;;;;;21.03;79.12;99539.88;1681155;84;21100;-72
2022/08/18 03:15:11;;;;;;;15.23;12.68;;;;;;;21.02;79.14;99538.23;1680707;84;20978;-73
2022/08/18 03:17:38;;;;;;;15.43;12.25;;;;;;;21.02;79.15;99540.40;1692193;84;21021;-72
2022/08/18 03:20:05;;;;;;;14.40;12.35;;;;;;;21.02;79.16;99526.97;1679828;85;22499;-72
2022/08/18 03:22:32;;;;;;;16.62;12.18;;;;;;;21.03;79.14;99531.82;1678145;85;21077;-74
2022/08/18 03:25:00;;;;;;;15.55;12.75;;;;;;;21.03;79.16;99535.33;1678430;84;20966;-73
2022/08/18 03:27:26;;;;;;;14.65;12.25;;;;;;;21.04;79.18;99538.88;1678471;84;21151;-72
2022/08/18 03:29:53;;;;;;;13.80;12.00;;;;;;;21.04;79.14;99530.30;1680068;85;21113;-71
2022/08/18 03:32:19;;;;;;;15.30;12.15;;;;;;;21.04;79.06;99532.98;1678602;84;21815;-73
2022/08/18 03:34:46;;;;;;;15.50;11.97;;;;;;;21.05;79.11;99531.94;1684163;84;21091;-72
2022/08/18 03:37:14;;;;;;;17.37;12.20;;;;;;;21.06;79.09;99528.22;1678846;85;21030;-73
2022/08/18 03:39:41;;;;;;;13.68;11.65;;;;;;;21.07;79.07;99531.73;1678529;85;21139;-72
2022/08/18 03:42:07;;;;;;;14.58;12.13;;;;;;;21.07;79.09;99534.41;1677791;84;21014;-72
2022/08/18 03:44:37;;;;;;;14.40;11.90;;;;;;;21.07;79.06;99538.44;1679662;84;21979;-72
2022/08/18 03:47:08;;;;;;;13.35;11.63;;;;;;;21.08;79.07;99534.20;1683013;84;21536;-72
2022/08/18 03:49:35;;;;;;;16.07;12.50;;;;;;;21.10;79.01;99541.52;1680445;84;21547;-73
2022/08/18 03:52:04;;;;;;;16.37;11.80;;;;;;;21.11;79.07;99541.83;1678677;84;21634;-72
2022/08/18 03:54:30;;;;;;;14.90;11.53;;;;;;;21.14;79.07;99545.97;1686332;84;21041;-72
2022/08/18 03:56:58;;;;;;;14.00;11.50;;;;;;;21.16;79.08;99551.95;1679367;84;22038;-72
2022/08/18 03:59:26;;;;;;;14.10;11.68;;;;;;;21.17;79.13;99544.20;1676687;84;21521;-72
2022/08/18 04:01:53;;;;;;;13.75;12.00;;;;;;;21.19;79.17;99549.35;1678894;84;21062;-74
2022/08/18 04:04:23;;;;;;;15.50;11.85;;;;;;;21.22;79.20;99550.27;1678914;85;21045;-75
2022/08/18 04:06:57;;;;;;;16.80;11.90;;;;;;;21.22;79.22;99536.84;1678899;84;20975;-75
2022/08/18 04:09:27;;;;;;;18.85;11.97;;;;;;;21.25;79.25;99543.16;1655757;85;22503;-74
2022/08/18 04:11:54;;;;;;;11.93;10.38;;;;;;;21.29;79.30;99543.05;1679584;84;21495;-76
2022/08/18 04:14:28;;;;;;;13.50;10.65;;;;;;;21.31;79.30;99539.63;1672092;84;21033;-76
2022/08/18 04:16:53;;;;;;;12.33;10.85;;;;;;;21.34;79.24;99539.23;1679688;84;21082;-74
2022/08/18 04:19:20;;;;;;;13.45;9.88;;;;;;;21.37;79.17;99538.80;1686011;84;21116;-74
2022/08/18 04:21:46;;;;;;;11.38;9.50;;;;;;;21.41;78.90;99537.32;1683545;84;21909;-74
2022/08/18 04:24:13;;;;;;;13.28;9.40;;;;;;;21.40;78.61;99538.36;1618512;85;21078;-74
2022/08/18 04:26:44;;;;;;;15.13;8.70;;;;;;;21.40;78.07;99539.70;1679664;84;21505;-73
2022/08/18 04:29:11;;;;;;;12.45;8.05;;;;;;;21.41;77.66;99534.12;1679353;84;21423;-73
2022/08/18 04:31:38;;;;;;;16.85;8.53;;;;;;;21.43;76.87;99533.93;1685317;84;21484;-74
2022/08/18 04:34:05;;;;;;;12.47;8.30;;;;;;;21.47;76.44;99532.97;1677989;85;21844;-75
2022/08/18 04:36:34;;;;;;;11.00;7.45;;;;;;;21.49;75.63;99531.72;1681956;84;21038;-73
2022/08/18 04:39:01;;;;;;;11.25;7.75;;;;;;;21.49;75.09;99537.09;1677241;85;21041;-74
2022/08/18 04:41:30;;;;;;;9.33;7.55;;;;;;;21.48;74.16;99536.78;1677985;84;21030;-74
2022/08/18 04:43:58;;;;;;;11.03;7.58;;;;;;;21.47;73.68;99541.86;1676512;84;21018;-74
2022/08/18 04:46:26;;;;;;;11.60;7.92;;;;;;;21.49;73.13;99539.78;1669105;84;22336;-81
2022/08/18 04:48:55;;;;;;;12.05;7.50;;;;;;;21.48;72.74;99540.81;1685938;84;21034;-73
2022/08/18 04:51:21;;;;;;;13.68;7.47;;;;;;;21.52;72.65;99543.89;1672090;84;20981;-73
2022/08/18 04:53:47;;;;;;;13.78;7.95;;;;;;;21.55;72.35;99539.45;1679219;84;20986;-77
2022/08/18 04:56:25;;;;;;;12.25;7.87;;;;;;;21.56;72.15;99537.89;1679000;84;21017;-73
2022/08/18 04:59:05;;;;;;;11.40;7.70;;;;;;;21.59;71.86;99542.83;1687071;84;22060;-74
2022/08/18 05:01:47;;;;;;;13.85;7.50;;;;;;;21.61;71.63;99540.75;1676899;84;20966;-74
2022/08/18 05:04:13;;;;;;;10.80;6.95;;;;;;;21.65;71.42;99543.85;1671748;84;21086;-74
2022/08/18 05:06:42;;;;;;;9.73;7.17;;;;;;;21.66;71.08;99544.98;1687117;82;21086;-73
2022/08/18 05:09:10;;;;;;;11.83;7.25;;;;;;;21.67;70.71;99549.31;1679133;84;21164;-74
2022/08/18 05:11:36;;;;;;;12.63;7.03;;;;;;;21.69;70.56;99545.88;1688358;84;21930;-74
2022/08/18 05:14:06;;;;;;;10.03;7.00;;;;;;;21.73;70.34;99548.17;1679004;84;20970;-72
2022/08/18 05:16:35;;;;;;;12.90;6.78;;;;;;;21.77;70.45;99545.34;1678835;85;21085;-73
2022/08/18 05:19:08;;;;;;;9.25;6.87;;;;;;;21.82;70.18;99546.36;1688733;84;21048;-74
2022/08/18 05:21:36;;;;;;;11.18;6.60;;;;;;;21.87;69.74;99553.77;1679375;85;21484;-74
2022/08/18 05:24:03;;;;;;;14.03;6.87;;;;;;;21.93;69.79;99551.58;1684205;84;22603;-74
2022/08/18 05:26:30;;;;;;;9.25;6.72;;;;;;;21.99;69.50;99556.89;1693282;84;21369;-75
2022/08/18 05:28:57;;;;;;;12.05;6.62;;;;;;;22.03;68.71;99550.58;1683622;84;21109;-75
2022/08/18 05:31:26;;;;;;;16.12;6.85;;;;;;;22.04;68.20;99553.57;1684239;84;21037;-73
2022/08/18 05:33:54;;;;;;;11.60;6.80;;;;;;;22.09;68.23;99559.14;1679713;84;21061;-74
2022/08/18 05:36:51;;;;;;;12.07;7.20;;;;;;;22.17;68.12;99554.03;1679160;85;21866;-75
2022/08/18 05:39:28;;;;;;;13.70;6.20;;;;;;;22.24;67.89;99554.30;1681421;84;20962;-72
2022/08/18 05:42:08;;;;;;;15.60;6.53;;;;;;;22.32;67.54;99553.73;1678232;85;21049;-73
2022/08/18 05:44:41;;;;;;;11.08;6.03;;;;;;;22.37;66.98;99551.20;1674130;84;22282;-74
2022/08/18 05:47:14;;;;;;;;;;;;;;;22.43;66.64;99555.72;1682413;84;21481;-75
2022/08/18 05:49:43;;;;;;;11.40;6.62;;;;;;;22.46;66.47;99555.27;1693808;84;21935;-74
2022/08/18 05:52:31;;;;;;;13.13;6.37;;;;;;;22.48;66.31;99558.56;1679566;84;21358;-74
2022/08/18 05:58:07;;;;;;;15.65;6.40;;;;;;;22.64;66.18;99566.63;1679282;84;20990;-73
2022/08/18 06:00:34;;;;;;;15.88;6.58;;;;;;;22.67;65.63;99564.30;1684550;84;21026;-73
2022/08/18 06:03:09;;;;;;;18.67;6.80;;;;;;;22.67;65.19;99568.87;1680480;84;22445;-76
2022/08/18 06:05:57;;;;;;;11.50;6.20;;;;;;;22.69;65.45;99575.70;1672574;82;21482;-75
2022/08/18 06:08:28;;;;;;;19.45;6.35;;;;;;;22.76;65.67;99570.23;1684226;84;21093;-75
2022/08/18 06:10:55;;;;;;;10.78;5.62;;;;;;;22.78;64.82;99569.52;1678810;85;21026;-76
2022/08/18 06:13:23;;;;;;;7.10;5.78;;;;;;;22.77;64.89;99574.58;1683019;84;21037;-75
2022/08/18 06:16:17;;;;;;;11.48;6.35;;;;;;;22.78;64.75;99571.69;1687203;84;21835;-74
2022/08/18 06:18:53;;;;;;;11.30;5.83;;;;;;;22.83;64.59;99568.32;1683502;84;21077;-75
2022/08/18 06:21:40;;;;;;;15.35;6.28;;;;;;;22.94;64.47;99573.53;1674942;84;21061;-76
2022/08/18 06:24:21;;;;;;;15.25;6.03;;;;;;;22.98;64.00;99573.41;1663352;85;21089;-73
2022/08/18 06:26:59;;;;;;;12.33;6.70;;;;;;;23.05;64.16;99580.88;1678789;85;21117;-78
2022/08/18 06:29:56;;;;;;;18.62;7.90;;;;;;;23.15;64.01;99571.77;1692186;84;21786;-74
2022/08/18 06:33:17;;;;;;;16.05;7.53;;;;;;;23.23;63.73;99570.66;1669838;85;21464;-75
2022/08/18 06:35:51;;;;;;;11.05;6.42;;;;;;;23.27;62.71;99574.04;1682391;84;21041;-77
2022/08/18 06:39:08;;;;;;;19.95;6.20;;;;;;;23.35;62.97;99576.94;1680984;84;20942;-74
2022/08/18 06:41:39;;;;;;;13.83;5.67;;;;;;;23.46;62.75;99574.05;1683715;84;21463;-74
2022/08/18 06:44:10;;;;;;;48.55;30.32;;;;;;;23.52;62.88;99573.13;1685802;84;21976;-73
2022/08/18 06:46:50;;;;;;;10.03;6.35;;;;;;;23.58;62.99;99575.75;1676622;84;21044;-75
2022/08/18 06:49:45;;;;;;;12.28;5.92;;;;;;;23.58;62.19;99578.98;1664032;84;21066;-74
2022/08/18 06:52:34;;;;;;;14.53;5.65;;;;;;;23.58;62.04;99577.62;1680222;85;21478;-75
2022/08/18 06:55:13;;;;;;;12.93;5.47;;;;;;;23.61;62.21;99575.85;1676771;84;20969;-74
2022/08/18 06:57:54;;;;;;;11.60;5.58;;;;;;;23.74;62.25;99570.31;1657515;85;21908;-75
2022/08/18 07:00:25;;;;;;;11.33;5.85;;;;;;;23.80;61.66;99570.73;1680865;85;20978;-75
2022/08/18 07:03:13;;;;;;;11.30;5.87;;;;;;;23.84;61.65;99574.64;1691480;84;20990;-74
2022/08/18 07:06:09;;;;;;;10.50;5.80;;;;;;;23.87;61.26;99577.40;1657551;85;20974;-74
2022/08/18 07:08:41;;;;;;;16.10;6.33;;;;;;;23.87;61.13;99578.22;1693443;84;21064;-74
2022/08/18 07:11:31;;;;;;;10.53;5.87;;;;;;;23.88;61.06;99579.86;1687599;84;22455;-74
2022/08/18 07:14:14;;;;;;;13.50;5.85;;;;;;;23.92;60.72;99577.52;1679193;84;20999;-75
2022/08/18 07:16:43;;;;;;;;;;;;;;;23.98;60.87;99586.88;1662934;84;21504;-73
2022/08/18 07:19:19;;;;;;;13.22;5.85;;;;;;;24.07;60.59;99578.48;1677976;84;21034;-74
2022/08/18 07:21:46;;;;;;;13.28;5.87;;;;;;;24.14;60.45;99583.27;1681014;84;21068;-76
2022/08/18 07:24:20;;;;;;;12.98;6.10;;;;;;;24.20;60.19;99582.32;1681467;84;21812;-75
2022/08/18 07:27:07;;;;;;;12.15;6.00;;;;;;;24.22;59.62;99578.86;1681565;84;21013;-75
2022/08/18 07:29:38;;;;;;;12.93;5.55;;;;;;;24.27;59.88;99581.18;1686307;84;21096;-74
2022/08/18 07:32:15;;;;;;;15.32;6.12;;;;;;;24.38;59.53;99580.94;1690443;84;21087;-74
2022/08/18 07:34:50;;;;;;;15.18;6.30;;;;;;;24.42;58.96;99582.14;1680877;85;21097;-74
2022/08/18 07:37:34;;;;;;;12.35;5.85;;;;;;;24.42;59.01;99582.14;1687305;82;21847;-75
2022/08/18 07:40:24;;;;;;;9.75;5.80;;;;;;;24.50;58.86;99587.19;1687738;84;21001;-74
2022/08/18 07:43:00;;;;;;;15.32;5.90;;;;;;;24.52;58.34;99586.45;1682593;84;21025;-76
2022/08/18 07:45:44;;;;;;;12.40;6.10;;;;;;;24.51;58.02;99585.30;1693519;84;21013;-75
2022/08/18 07:48:18;;;;;;;16.93;5.90;;;;;;;24.54;58.05;99584.33;1692564;84;21026;-75
2022/08/18 07:51:14;;;;;;;14.20;5.83;;;;;;;24.59;58.23;99583.63;1691320;84;21902;-75
2022/08/18 07:54:19;;;;;;;11.63;5.65;;;;;;;24.69;57.96;99593.85;1675073;84;21018;-74
2022/08/18 07:56:54;;;;;;;10.55;5.50;;;;;;;24.81;57.82;99596.88;1603202;88;21127;-74
2022/08/18 07:59:32;;;;;;;12.15;6.00;;;;;;;24.98;58.36;99592.11;1596223;88;21024;-74
2022/08/18 08:02:19;;;;;;;11.65;5.70;;;;;;;25.16;57.35;99592.56;1638988;84;20978;-77
2022/08/18 08:05:20;;;;;;;12.40;5.62;;;;;;;25.19;56.57;99589.37;1680452;85;22544;-75
2022/08/18 08:07:59;;;;;;;12.47;5.12;;;;;;;25.23;56.72;99591.39;1682092;84;21053;-73
2022/08/18 08:10:34;;;;;;;14.93;5.50;;;;;;;25.32;56.61;99589.97;1682162;84;21041;-72
2022/08/18 08:13:19;;;;;;;14.30;5.35;;;;;;;25.46;56.00;99581.59;1679790;84;21018;-72
2022/08/18 08:16:11;;;;;;;12.53;5.50;;;;;;;25.54;55.73;99584.75;1652507;85;21026;-72
2022/08/18 08:18:52;;;;;;;13.90;5.12;;;;;;;25.58;55.09;99579.70;1654370;85;21823;-73
2022/08/18 08:21:21;;;;;;;10.65;5.00;;;;;;;25.56;55.42;99578.56;1679639;85;21480;-73
2022/08/18 08:24:02;;;;;;;12.07;5.08;;;;;;;25.61;55.64;99575.98;1699906;83;21025;-73
2022/08/18 08:27:08;;;;;;;17.85;5.10;;;;;;;25.76;55.62;99577.37;1688209;84;21049;-74
2022/08/18 08:29:55;;;;;;;8.85;4.90;;;;;;;25.90;54.42;99583.63;1666460;85;21131;-75
2022/08/18 08:32:45;;;;;;;8.88;4.50;;;;;;;25.96;54.58;99577.26;1679817;84;22404;-75
2022/08/18 08:35:25;;;;;;;9.73;5.17;;;;;;;26.09;54.88;99583.44;1672600;85;20973;-76
2022/08/18 08:37:56;;;;;;;16.15;5.25;;;;;;;26.21;54.21;99582.30;1690672;84;21512;-76
2022/08/18 08:40:30;;;;;;;9.18;4.70;;;;;;;26.30;53.72;99583.27;1679644;85;21029;-75
2022/08/18 08:43:05;;;;;;;7.30;4.55;;;;;;;26.35;52.90;99580.66;1679974;84;21017;-75
2022/08/18 08:45:45;;;;;;;12.10;4.78;;;;;;;26.37;53.23;99578.53;1687241;84;21951;-77
2022/08/18 08:48:26;;;;;;;10.35;5.17;;;;;;;26.47;53.59;99578.20;1688704;84;21116;-76
2022/08/18 08:51:29;;;;;;;14.35;4.70;;;;;;;26.61;53.45;99568.39;1684622;84;21113;-77
2022/08/18 08:54:22;;;;;;;10.38;4.62;;;;;;;26.77;52.45;99568.92;1673652;84;21014;-74
2022/08/18 08:56:50;;;;;;;12.23;4.87;;;;;;;26.87;52.00;99574.50;1660126;84;21541;-76
2022/08/18 08:59:20;;;;;;;7.87;4.50;;;;;;;26.87;51.10;99573.69;1680105;84;22281;-75
2022/08/18 09:02:16;;;;;;;9.73;4.62;;;;;;;26.83;51.26;99574.72;1681765;84;21084;-75
2022/08/18 09:05:15;;;;;;;10.70;4.87;;;;;;;26.85;51.17;99572.58;1688232;84;21142;-75
2022/08/18 09:08:21;;;;;;;11.50;4.55;;;;;;;26.89;50.93;99575.61;1680491;84;21079;-75
2022/08/18 09:11:20;;;;;;;8.58;4.37;;;;;;;26.94;51.36;99572.45;1679275;84;22024;-75
2022/08/18 09:13:55;;;;;;;12.10;4.60;;;;;;;27.10;51.49;99571.61;1670943;85;21882;-76
2022/08/18 09:16:41;;;;;;;11.18;4.37;;;;;;;27.26;50.40;99579.44;1679775;84;21109;-75
2022/08/18 09:19:40;;;;;;;12.15;5.03;;;;;;;27.31;49.45;99579.52;1652411;85;21459;-74
2022/08/18 09:22:25;;;;;;;7.65;4.53;;;;;;;27.34;50.03;99579.55;1646520;85;21374;-76
2022/08/18 09:24:52;;;;;;;13.58;4.42;;;;;;;27.44;49.96;99566.66;1679779;85;21072;-75
2022/08/18 09:27:45;;;;;;;9.25;4.70;;;;;;;27.56;49.77;99573.59;1679916;84;21578;-76
2022/08/18 09:30:57;;;;;;;9.03;4.20;;;;;;;27.70;50.04;99573.23;1652988;85;21053;-75
2022/08/18 09:33:47;;;;;;;15.48;4.65;;;;;;;27.89;49.63;99574.53;1679724;85;22086;-74
2022/08/18 09:36:44;;;;;;;8.40;4.00;;;;;;;28.03;48.16;99579.05;1672969;84;21031;-74
2022/08/18 09:42:49;;;;;;;10.48;4.30;;;;;;;27.96;47.12;99576.52;1679615;84;22647;-76
2022/08/18 09:45:33;;;;;;;6.85;3.87;;;;;;;28.00;47.84;99578.20;1678614;84;21061;-74
2022/08/18 09:48:13;;;;;;;5.90;3.90;;;;;;;28.14;47.70;99574.00;1672916;85;21038;-76
2022/08/18 09:51:14;;;;;;;11.03;3.90;;;;;;;28.30;46.87;99581.26;1678231;84;21499;-75
2022/08/18 09:53:52;;;;;;;9.63;3.87;;;;;;;28.40;47.68;99578.63;1675738;84;21068;-76
2022/08/18 09:57:06;;;;;;;9.38;4.08;;;;;;;28.65;47.06;99580.73;1645839;85;21954;-75
2022/08/18 09:59:39;;;;;;;10.93;3.98;;;;;;;28.88;46.79;99576.84;1678459;85;21409;-73
2022/08/18 10:02:11;;;;;;;11.50;4.00;;;;;;;29.18;47.05;99581.69;1678389;85;21044;-74
2022/08/18 10:04:49;;;;;;;11.50;3.85;;;;;;;29.39;46.22;99575.00;1678420;85;21665;-74
2022/08/18 10:07:32;;;;;;;13.00;4.03;;;;;;;29.47;45.12;99575.86;1655877;85;21036;-77
2022/08/18 10:10:27;;;;;;;14.00;4.30;;;;;;;29.51;44.53;99571.53;1676680;85;21864;-72
2022/08/18 10:13:02;;;;;;;10.78;3.80;;;;;;;29.58;44.07;99568.04;1678324;85;21090;-73
2022/08/18 10:15:37;;;;;;;13.15;4.35;;;;;;;29.61;43.66;99556.61;1678458;85;21044;-74
2022/08/18 10:18:25;;;;;;;8.65;3.92;;;;;;;29.63;44.16;99559.36;1677978;85;21045;-75
2022/08/18 10:21:20;;;;;;;9.68;3.92;;;;;;;29.91;43.89;99552.61;1678614;85;21049;-76
2022/08/18 10:23:55;;;;;;;11.25;4.00;;;;;;;29.91;43.89;99552.61;1678714;85;21815;-75
2022/08/18 10:26:37;;;;;;;11.48;3.70;;;;;;;30.08;43.40;99557.05;1678317;85;21079;-77
2022/08/18 10:29:12;;;;;;;10.68;3.87;;;;;;;30.20;42.38;99554.88;1678399;85;21044;-76
2022/08/18 10:32:00;;;;;;;11.73;3.92;;;;;;;30.29;42.17;99560.06;1674845;85;21725;-78
2022/08/18 10:34:42;;;;;;;9.68;3.70;;;;;;;30.36;42.65;99561.17;1665817;85;21029;-77
2022/08/18 10:37:44;;;;;;;13.28;3.80;;;;;;;30.51;42.43;99566.64;1678641;85;22163;-76
2022/08/18 10:40:15;;;;;;;10.03;3.77;;;;;;;30.67;42.52;99568.28;1678264;85;21034;-77
2022/08/18 10:46:22;;;;;;;9.95;3.77;;;;;;;31.09;42.34;99564.42;1678232;85;21068;-76
2022/08/18 10:49:04;;;;;;;7.72;3.70;;;;;;;31.34;42.08;99566.28;1678372;85;21045;-75
2022/08/18 10:51:51;;;;;;;9.13;3.75;;;;;;;31.52;41.29;99575.22;1676584;85;23085;-75
2022/08/18 10:54:27;;;;;;;9.48;3.67;;;;;;;31.71;40.86;99584.97;1678565;85;21010;-76
2022/08/18 10:56:58;;;;;;;10.08;3.87;;;;;;;31.85;39.98;99578.39;1678193;85;21013;-75
2022/08/18 10:59:39;;;;;;;10.40;3.83;;;;;;;31.92;39.46;99577.52;1678350;85;21512;-75
2022/08/18 11:02:30;;;;;;;12.43;3.72;;;;;;;31.99;40.03;99578.03;1680590;85;21032;-74
2022/08/18 11:09:09;;;;;;;9.18;3.50;;;;;;;32.33;40.27;99584.95;1653128;86;21344;-75
2022/08/18 11:11:42;;;;;;;10.98;3.70;;;;;;;32.56;40.20;99588.05;1653088;86;21060;-75
2022/08/18 11:14:46;;;;;;;10.15;3.40;;;;;;;32.71;39.75;99592.01;1623549;88;21052;-74
2022/08/18 11:17:40;;;;;;;9.18;3.40;;;;;;;32.84;39.70;99585.11;1604688;86;21770;-75
2022/08/18 11:20:08;;;;;;;8.00;3.47;;;;;;;33.09;38.06;99582.66;1650343;86;21953;-75
2022/08/18 11:22:35;;;;;;;12.78;3.25;;;;;;;33.06;37.68;99577.22;1647939;86;22190;-75
2022/08/18 11:25:05;;;;;;;9.18;3.72;;;;;;;33.02;37.98;99578.36;1650477;86;21089;-74
2022/08/18 11:27:36;;;;;;;12.05;3.72;;;;;;;32.99;38.00;99580.29;1650174;86;21505;-74
2022/08/18 11:30:04;;;;;;;11.38;3.80;;;;;;;33.01;37.51;99580.03;1650487;86;21033;-74
2022/08/18 11:32:37;;;;;;;14.07;3.77;;;;;;;33.00;37.60;99575.08;1650732;86;22782;-73
2022/08/18 11:35:15;;;;;;;11.93;3.62;;;;;;;33.08;37.51;99570.90;1650493;86;21299;-75
2022/08/18 11:41:21;;;;;;;11.88;3.65;;;;;;;33.28;38.13;99569.30;1676535;85;21146;-74
2022/08/18 11:43:47;;;;;;;12.10;3.65;;;;;;;33.55;37.43;99567.37;1676466;85;21053;-75
2022/08/18 11:46:27;;;;;;;16.05;3.62;;;;;;;33.62;37.37;99562.11;1673560;84;21908;-74
2022/08/18 11:48:54;;;;;;;10.55;3.33;;;;;;;33.67;37.09;99565.58;1676536;85;21703;-74
2022/08/18 11:51:25;;;;;;;11.20;3.52;;;;;;;33.78;37.98;99562.14;1650760;85;21030;-74
2022/08/18 11:53:59;;;;;;;10.08;3.33;;;;;;;33.89;36.37;99566.43;1676490;85;21037;-75
2022/08/18 11:56:32;;;;;;;12.82;3.95;;;;;;;33.77;36.31;99572.84;1672649;85;21487;-75
2022/08/18 11:59:06;;;;;;;14.98;3.47;;;;;;;33.65;36.12;99569.17;1676432;85;22590;-74
2022/08/18 12:01:44;;;;;;;11.05;3.30;;;;;;;33.64;36.99;99575.76;1662079;85;21485;-74
2022/08/18 12:04:18;;;;;;;11.10;3.20;;;;;;;33.62;36.75;99566.22;1676575;85;21019;-74
2022/08/18 12:06:59;;;;;;;15.60;3.85;;;;;;;33.61;36.80;99569.51;1676457;85;21073;-74
2022/08/18 12:09:44;;;;;;;11.08;3.90;;;;;;;33.57;37.19;99563.78;1676510;85;21042;-75
2022/08/18 12:12:29;;;;;;;11.03;3.30;;;;;;;33.65;37.60;99558.22;1676503;85;21862;-74
2022/08/18 12:15:15;;;;;;;9.58;3.37;;;;;;;33.72;37.05;99564.71;1674599;84;21007;-75
2022/08/18 12:17:44;;;;;;;10.05;3.60;;;;;;;33.71;36.26;99561.72;1650316;85;21061;-74
2022/08/18 12:20:11;;;;;;;10.45;3.80;;;;;;;33.68;37.11;99556.25;1650664;86;21081;-74
2022/08/18 12:22:39;;;;;;;17.07;3.52;;;;;;;33.86;38.45;99545.86;1664292;85;21076;-75
2022/08/18 12:25:11;;;;;;;13.95;3.42;;;;;;;34.08;37.29;99549.44;1677887;85;21858;-74